Wrightsville, Georgia
Current Conditions -  °F | °C
As of 8:15 AM on Sunday 23 Nov 2014 (Local Time) from KOKZ Reporting Station
Moderate Rain Moderate Rain  
Wind Chill: 56°   Ceiling: 700
Heat Index: 56°   Visibility: 2mi
Dew Point: 56°   Wind: 13mph
Humidity: 100%   Direction: 90°E
Pressure: 30.06"   Gusts: 20mph
Location:  32.73°N, 82.72°W
Report Text: KOKZ 231315Z AUTO 09011G17KT 2SM RA BKN007 OVC014 14/14 A3006 RMK AO2 T01350135
Loading
Personal Weather Stations






























Interactive Weather Map New forecast layout! Learn more

10-Day Weather Forecast

Advertisements
Track Severe Weather on mobile